sensor_id;sensor_type;location;lat;lon;timestamp;P1;durP1;ratioP1;P2;durP2;ratioP2
23302;SDS011;11820;48.738;9.092;2023-03-19T00:01:26;7.10;;;2.50;;
23302;SDS011;11820;48.738;9.092;2023-03-19T00:03:52;3.83;;;3.03;;
23302;SDS011;11820;48.738;9.092;2023-03-19T00:06:18;4.33;;;2.27;;
23302;SDS011;11820;48.738;9.092;2023-03-19T00:08:43;7.23;;;2.13;;
23302;SDS011;11820;48.738;9.092;2023-03-19T00:11:09;4.07;;;2.17;;
23302;SDS011;11820;48.738;9.092;2023-03-19T00:13:36;4.23;;;2.30;;
23302;SDS011;11820;48.738;9.092;2023-03-19T00:16:02;10.33;;;2.97;;
23302;SDS011;11820;48.738;9.092;2023-03-19T00:18:27;8.47;;;2.87;;
23302;SDS011;11820;48.738;9.092;2023-03-19T00:20:53;7.77;;;2.90;;
23302;SDS011;11820;48.738;9.092;2023-03-19T00:23:18;6.40;;;2.63;;
23302;SDS011;11820;48.738;9.092;2023-03-19T00:25:43;4.27;;;2.77;;
23302;SDS011;11820;48.738;9.092;2023-03-19T00:28:08;5.33;;;2.40;;
23302;SDS011;11820;48.738;9.092;2023-03-19T00:30:34;3.97;;;2.53;;
23302;SDS011;11820;48.738;9.092;2023-03-19T00:33:00;6.97;;;2.57;;
23302;SDS011;11820;48.738;9.092;2023-03-19T00:35:26;5.17;;;2.57;;
23302;SDS011;11820;48.738;9.092;2023-03-19T00:37:51;4.67;;;2.77;;
23302;SDS011;11820;48.738;9.092;2023-03-19T00:40:17;4.23;;;2.53;;
23302;SDS011;11820;48.738;9.092;2023-03-19T00:42:42;8.97;;;2.80;;
23302;SDS011;11820;48.738;9.092;2023-03-19T00:45:08;4.67;;;2.90;;
23302;SDS011;11820;48.738;9.092;2023-03-19T00:47:35;7.97;;;2.60;;
23302;SDS011;11820;48.738;9.092;2023-03-19T00:50:01;5.83;;;2.67;;
23302;SDS011;11820;48.738;9.092;2023-03-19T00:52:27;5.53;;;2.60;;
23302;SDS011;11820;48.738;9.092;2023-03-19T00:54:52;3.60;;;2.70;;
23302;SDS011;11820;48.738;9.092;2023-03-19T00:57:17;4.10;;;2.20;;
23302;SDS011;11820;48.738;9.092;2023-03-19T00:59:42;5.30;;;2.60;;
23302;SDS011;11820;48.738;9.092;2023-03-19T01:02:08;3.57;;;2.50;;
23302;SDS011;11820;48.738;9.092;2023-03-19T01:04:33;5.73;;;2.40;;
23302;SDS011;11820;48.738;9.092;2023-03-19T01:06:58;3.47;;;2.40;;
23302;SDS011;11820;48.738;9.092;2023-03-19T01:09:24;3.67;;;2.20;;
23302;SDS011;11820;48.738;9.092;2023-03-19T01:11:49;5.03;;;2.73;;
23302;SDS011;11820;48.738;9.092;2023-03-19T01:14:15;5.70;;;2.57;;
23302;SDS011;11820;48.738;9.092;2023-03-19T01:16:41;5.43;;;2.80;;
23302;SDS011;11820;48.738;9.092;2023-03-19T01:19:06;5.97;;;2.67;;
23302;SDS011;11820;48.738;9.092;2023-03-19T01:21:32;3.17;;;2.50;;
23302;SDS011;11820;48.738;9.092;2023-03-19T01:23:58;3.93;;;2.40;;
23302;SDS011;11820;48.738;9.092;2023-03-19T01:26:23;5.03;;;2.50;;
23302;SDS011;11820;48.738;9.092;2023-03-19T01:28:49;5.73;;;2.57;;
23302;SDS011;11820;48.738;9.092;2023-03-19T01:31:14;7.53;;;2.57;;
23302;SDS011;11820;48.738;9.092;2023-03-19T01:33:40;4.23;;;2.30;;
23302;SDS011;11820;48.738;9.092;2023-03-19T01:36:06;4.47;;;2.97;;
23302;SDS011;11820;48.738;9.092;2023-03-19T01:38:32;7.83;;;2.73;;
23302;SDS011;11820;48.738;9.092;2023-03-19T01:40:58;6.37;;;2.97;;
23302;SDS011;11820;48.738;9.092;2023-03-19T01:43:24;8.17;;;3.07;;
23302;SDS011;11820;48.738;9.092;2023-03-19T01:45:52;4.10;;;2.87;;
23302;SDS011;11820;48.738;9.092;2023-03-19T01:50:58;4.63;;;3.27;;
23302;SDS011;11820;48.738;9.092;2023-03-19T01:53:26;4.83;;;2.53;;
23302;SDS011;11820;48.738;9.092;2023-03-19T01:55:56;3.83;;;2.53;;
23302;SDS011;11820;48.738;9.092;2023-03-19T01:58:26;3.90;;;2.40;;
23302;SDS011;11820;48.738;9.092;2023-03-19T02:00:53;4.37;;;2.20;;
23302;SDS011;11820;48.738;9.092;2023-03-19T02:03:20;6.57;;;3.17;;
23302;SDS011;11820;48.738;9.092;2023-03-19T02:05:46;3.73;;;2.60;;
23302;SDS011;11820;48.738;9.092;2023-03-19T02:08:15;3.00;;;2.70;;
23302;SDS011;11820;48.738;9.092;2023-03-19T02:10:43;3.63;;;2.70;;
23302;SDS011;11820;48.738;9.092;2023-03-19T02:13:11;4.00;;;2.43;;
23302;SDS011;11820;48.738;9.092;2023-03-19T02:15:37;3.37;;;2.57;;
23302;SDS011;11820;48.738;9.092;2023-03-19T02:18:02;5.03;;;2.80;;
23302;SDS011;11820;48.738;9.092;2023-03-19T02:20:32;6.00;;;2.87;;
23302;SDS011;11820;48.738;9.092;2023-03-19T02:28:09;3.87;;;2.60;;
23302;SDS011;11820;48.738;9.092;2023-03-19T02:30:35;2.70;;;2.30;;
23302;SDS011;11820;48.738;9.092;2023-03-19T02:33:01;5.40;;;2.73;;
23302;SDS011;11820;48.738;9.092;2023-03-19T02:35:26;5.97;;;2.57;;
23302;SDS011;11820;48.738;9.092;2023-03-19T02:37:55;4.60;;;2.60;;
23302;SDS011;11820;48.738;9.092;2023-03-19T02:40:25;3.63;;;2.50;;
23302;SDS011;11820;48.738;9.092;2023-03-19T02:42:54;2.70;;;2.50;;
23302;SDS011;11820;48.738;9.092;2023-03-19T02:45:20;4.87;;;2.63;;
23302;SDS011;11820;48.738;9.092;2023-03-19T02:47:47;6.67;;;2.87;;
23302;SDS011;11820;48.738;9.092;2023-03-19T02:50:12;2.33;;;2.13;;
23302;SDS011;11820;48.738;9.092;2023-03-19T02:52:37;4.87;;;2.67;;
23302;SDS011;11820;48.738;9.092;2023-03-19T02:55:03;4.57;;;2.97;;
23302;SDS011;11820;48.738;9.092;2023-03-19T02:57:28;6.57;;;2.57;;
23302;SDS011;11820;48.738;9.092;2023-03-19T02:59:54;2.83;;;2.30;;
23302;SDS011;11820;48.738;9.092;2023-03-19T03:02:19;4.37;;;3.03;;
23302;SDS011;11820;48.738;9.092;2023-03-19T03:04:45;4.60;;;3.30;;
23302;SDS011;11820;48.738;9.092;2023-03-19T03:07:10;6.97;;;3.00;;
23302;SDS011;11820;48.738;9.092;2023-03-19T03:09:35;3.53;;;2.80;;
23302;SDS011;11820;48.738;9.092;2023-03-19T03:12:01;3.63;;;2.93;;
23302;SDS011;11820;48.738;9.092;2023-03-19T03:14:26;6.77;;;3.00;;
23302;SDS011;11820;48.738;9.092;2023-03-19T03:16:52;6.80;;;2.60;;
23302;SDS011;11820;48.738;9.092;2023-03-19T03:19:17;2.73;;;2.40;;
23302;SDS011;11820;48.738;9.092;2023-03-19T03:21:43;5.27;;;2.47;;
23302;SDS011;11820;48.738;9.092;2023-03-19T03:24:08;4.83;;;2.90;;
23302;SDS011;11820;48.738;9.092;2023-03-19T03:26:34;5.07;;;2.87;;
23302;SDS011;11820;48.738;9.092;2023-03-19T03:29:03;3.27;;;2.63;;
23302;SDS011;11820;48.738;9.092;2023-03-19T03:31:29;3.80;;;2.87;;
23302;SDS011;11820;48.738;9.092;2023-03-19T03:33:54;5.90;;;3.27;;
23302;SDS011;11820;48.738;9.092;2023-03-19T03:36:19;7.03;;;3.00;;
23302;SDS011;11820;48.738;9.092;2023-03-19T03:38:45;9.50;;;4.00;;
23302;SDS011;11820;48.738;9.092;2023-03-19T03:41:10;8.43;;;3.80;;
23302;SDS011;11820;48.738;9.092;2023-03-19T03:43:36;5.93;;;3.47;;
23302;SDS011;11820;48.738;9.092;2023-03-19T03:46:01;4.47;;;3.80;;
23302;SDS011;11820;48.738;9.092;2023-03-19T03:48:26;4.37;;;3.50;;
23302;SDS011;11820;48.738;9.092;2023-03-19T03:50:52;4.97;;;3.63;;
23302;SDS011;11820;48.738;9.092;2023-03-19T03:53:18;6.23;;;3.70;;
23302;SDS011;11820;48.738;9.092;2023-03-19T03:55:43;6.17;;;3.23;;
23302;SDS011;11820;48.738;9.092;2023-03-19T03:58:09;6.50;;;3.57;;
23302;SDS011;11820;48.738;9.092;2023-03-19T04:00:34;5.47;;;3.80;;
23302;SDS011;11820;48.738;9.092;2023-03-19T04:03:00;5.87;;;2.93;;
23302;SDS011;11820;48.738;9.092;2023-03-19T04:05:25;3.70;;;2.83;;
23302;SDS011;11820;48.738;9.092;2023-03-19T04:07:51;9.00;;;3.30;;
23302;SDS011;11820;48.738;9.092;2023-03-19T04:10:17;6.93;;;3.47;;
23302;SDS011;11820;48.738;9.092;2023-03-19T04:12:43;4.10;;;2.67;;
23302;SDS011;11820;48.738;9.092;2023-03-19T04:15:10;4.60;;;3.03;;
23302;SDS011;11820;48.738;9.092;2023-03-19T04:17:36;2.50;;;2.30;;
23302;SDS011;11820;48.738;9.092;2023-03-19T04:20:02;4.03;;;2.83;;
23302;SDS011;11820;48.738;9.092;2023-03-19T04:22:28;4.57;;;2.50;;
23302;SDS011;11820;48.738;9.092;2023-03-19T04:24:53;4.13;;;2.47;;
23302;SDS011;11820;48.738;9.092;2023-03-19T04:27:19;3.63;;;2.43;;
23302;SDS011;11820;48.738;9.092;2023-03-19T04:29:44;4.97;;;3.07;;
23302;SDS011;11820;48.738;9.092;2023-03-19T04:32:10;3.10;;;2.40;;
23302;SDS011;11820;48.738;9.092;2023-03-19T04:34:35;4.97;;;2.87;;
23302;SDS011;11820;48.738;9.092;2023-03-19T04:37:01;3.83;;;2.50;;
23302;SDS011;11820;48.738;9.092;2023-03-19T04:39:27;4.60;;;3.13;;
23302;SDS011;11820;48.738;9.092;2023-03-19T04:41:52;3.90;;;2.73;;
23302;SDS011;11820;48.738;9.092;2023-03-19T04:44:18;5.53;;;2.80;;
23302;SDS011;11820;48.738;9.092;2023-03-19T04:46:43;4.93;;;2.90;;
23302;SDS011;11820;48.738;9.092;2023-03-19T04:49:09;3.97;;;2.63;;
23302;SDS011;11820;48.738;9.092;2023-03-19T04:51:35;6.37;;;2.57;;
23302;SDS011;11820;48.738;9.092;2023-03-19T04:54:00;3.10;;;2.40;;
23302;SDS011;11820;48.738;9.092;2023-03-19T04:56:26;5.37;;;2.57;;
23302;SDS011;11820;48.738;9.092;2023-03-19T04:58:51;6.20;;;2.80;;
23302;SDS011;11820;48.738;9.092;2023-03-19T05:01:17;5.80;;;2.57;;
23302;SDS011;11820;48.738;9.092;2023-03-19T05:03:43;5.20;;;2.77;;
23302;SDS011;11820;48.738;9.092;2023-03-19T05:06:08;4.47;;;2.60;;
23302;SDS011;11820;48.738;9.092;2023-03-19T05:08:33;4.00;;;2.30;;
23302;SDS011;11820;48.738;9.092;2023-03-19T05:10:59;3.27;;;2.50;;
23302;SDS011;11820;48.738;9.092;2023-03-19T05:13:24;3.33;;;2.23;;
23302;SDS011;11820;48.738;9.092;2023-03-19T05:15:51;5.00;;;2.80;;
23302;SDS011;11820;48.738;9.092;2023-03-19T05:18:17;4.73;;;2.40;;
23302;SDS011;11820;48.738;9.092;2023-03-19T05:20:43;5.13;;;2.90;;
23302;SDS011;11820;48.738;9.092;2023-03-19T05:23:09;3.30;;;2.40;;
23302;SDS011;11820;48.738;9.092;2023-03-19T05:25:34;3.20;;;2.53;;
23302;SDS011;11820;48.738;9.092;2023-03-19T05:28:00;3.30;;;2.83;;
23302;SDS011;11820;48.738;9.092;2023-03-19T05:30:25;4.60;;;2.60;;
23302;SDS011;11820;48.738;9.092;2023-03-19T05:32:51;6.37;;;2.80;;
23302;SDS011;11820;48.738;9.092;2023-03-19T05:35:17;3.07;;;2.10;;
23302;SDS011;11820;48.738;9.092;2023-03-19T05:37:43;2.73;;;2.20;;
23302;SDS011;11820;48.738;9.092;2023-03-19T05:40:09;4.50;;;2.50;;
23302;SDS011;11820;48.738;9.092;2023-03-19T05:42:34;3.17;;;2.43;;
23302;SDS011;11820;48.738;9.092;2023-03-19T05:45:00;5.30;;;2.83;;
23302;SDS011;11820;48.738;9.092;2023-03-19T05:47:26;5.07;;;2.60;;
23302;SDS011;11820;48.738;9.092;2023-03-19T05:49:51;6.47;;;2.50;;
23302;SDS011;11820;48.738;9.092;2023-03-19T05:52:17;3.10;;;2.00;;
23302;SDS011;11820;48.738;9.092;2023-03-19T05:54:42;5.57;;;2.57;;
23302;SDS011;11820;48.738;9.092;2023-03-19T05:57:07;3.30;;;1.97;;
23302;SDS011;11820;48.738;9.092;2023-03-19T05:59:33;4.43;;;2.43;;
23302;SDS011;11820;48.738;9.092;2023-03-19T06:01:58;4.10;;;2.50;;
23302;SDS011;11820;48.738;9.092;2023-03-19T06:04:24;5.73;;;2.40;;
23302;SDS011;11820;48.738;9.092;2023-03-19T06:06:50;2.37;;;1.87;;
23302;SDS011;11820;48.738;9.092;2023-03-19T06:09:16;2.77;;;2.10;;
23302;SDS011;11820;48.738;9.092;2023-03-19T06:11:41;3.33;;;1.90;;
23302;SDS011;11820;48.738;9.092;2023-03-19T06:14:07;3.73;;;2.17;;
23302;SDS011;11820;48.738;9.092;2023-03-19T06:16:32;3.23;;;1.53;;
23302;SDS011;11820;48.738;9.092;2023-03-19T06:18:58;6.07;;;2.47;;
23302;SDS011;11820;48.738;9.092;2023-03-19T06:21:23;4.77;;;1.93;;
23302;SDS011;11820;48.738;9.092;2023-03-19T06:23:53;4.00;;;2.37;;
23302;SDS011;11820;48.738;9.092;2023-03-19T06:26:22;4.67;;;2.00;;
23302;SDS011;11820;48.738;9.092;2023-03-19T06:28:47;3.47;;;1.90;;
23302;SDS011;11820;48.738;9.092;2023-03-19T06:31:13;4.10;;;2.23;;
23302;SDS011;11820;48.738;9.092;2023-03-19T06:33:38;4.43;;;1.97;;
23302;SDS011;11820;48.738;9.092;2023-03-19T06:36:04;2.20;;;1.80;;
23302;SDS011;11820;48.738;9.092;2023-03-19T06:38:30;4.43;;;2.00;;
23302;SDS011;11820;48.738;9.092;2023-03-19T06:40:55;3.87;;;1.90;;
23302;SDS011;11820;48.738;9.092;2023-03-19T06:43:20;3.33;;;1.80;;
23302;SDS011;11820;48.738;9.092;2023-03-19T06:45:46;5.43;;;2.30;;
23302;SDS011;11820;48.738;9.092;2023-03-19T06:48:11;3.87;;;1.80;;
23302;SDS011;11820;48.738;9.092;2023-03-19T06:50:37;1.87;;;1.70;;
23302;SDS011;11820;48.738;9.092;2023-03-19T06:53:02;7.00;;;2.00;;
23302;SDS011;11820;48.738;9.092;2023-03-19T06:55:28;4.47;;;1.70;;
23302;SDS011;11820;48.738;9.092;2023-03-19T06:57:55;4.67;;;1.97;;
23302;SDS011;11820;48.738;9.092;2023-03-19T07:00:21;5.53;;;2.00;;
23302;SDS011;11820;48.738;9.092;2023-03-19T07:02:46;3.10;;;1.83;;
23302;SDS011;11820;48.738;9.092;2023-03-19T07:05:12;2.13;;;1.70;;
23302;SDS011;11820;48.738;9.092;2023-03-19T07:07:38;2.83;;;2.10;;
23302;SDS011;11820;48.738;9.092;2023-03-19T07:10:03;4.60;;;2.53;;
23302;SDS011;11820;48.738;9.092;2023-03-19T07:12:29;3.57;;;1.90;;
23302;SDS011;11820;48.738;9.092;2023-03-19T07:14:55;2.30;;;1.70;;
23302;SDS011;11820;48.738;9.092;2023-03-19T07:17:21;3.07;;;2.17;;
23302;SDS011;11820;48.738;9.092;2023-03-19T07:19:47;3.37;;;2.30;;
23302;SDS011;11820;48.738;9.092;2023-03-19T07:22:12;3.80;;;1.70;;
23302;SDS011;11820;48.738;9.092;2023-03-19T07:24:38;4.17;;;1.80;;
23302;SDS011;11820;48.738;9.092;2023-03-19T07:27:03;3.97;;;1.60;;
23302;SDS011;11820;48.738;9.092;2023-03-19T07:29:28;3.03;;;1.90;;
23302;SDS011;11820;48.738;9.092;2023-03-19T07:31:54;3.27;;;1.93;;
23302;SDS011;11820;48.738;9.092;2023-03-19T07:34:19;1.77;;;1.53;;
23302;SDS011;11820;48.738;9.092;2023-03-19T07:36:45;3.77;;;1.67;;
23302;SDS011;11820;48.738;9.092;2023-03-19T07:39:11;3.87;;;1.83;;
23302;SDS011;11820;48.738;9.092;2023-03-19T07:41:36;2.73;;;1.63;;
23302;SDS011;11820;48.738;9.092;2023-03-19T07:44:01;2.63;;;1.67;;
23302;SDS011;11820;48.738;9.092;2023-03-19T07:46:27;5.77;;;1.80;;
23302;SDS011;11820;48.738;9.092;2023-03-19T07:48:52;4.97;;;1.70;;
23302;SDS011;11820;48.738;9.092;2023-03-19T07:51:17;1.90;;;1.73;;
23302;SDS011;11820;48.738;9.092;2023-03-19T07:53:43;5.10;;;1.90;;
23302;SDS011;11820;48.738;9.092;2023-03-19T07:56:08;3.23;;;1.60;;
23302;SDS011;11820;48.738;9.092;2023-03-19T07:58:34;3.27;;;1.23;;
23302;SDS011;11820;48.738;9.092;2023-03-19T08:00:59;2.77;;;1.60;;
23302;SDS011;11820;48.738;9.092;2023-03-19T08:03:24;3.30;;;1.53;;
23302;SDS011;11820;48.738;9.092;2023-03-19T08:05:50;2.23;;;1.30;;
23302;SDS011;11820;48.738;9.092;2023-03-19T08:08:16;3.43;;;1.60;;
23302;SDS011;11820;48.738;9.092;2023-03-19T08:10:41;3.13;;;1.50;;
23302;SDS011;11820;48.738;9.092;2023-03-19T08:13:07;3.13;;;1.43;;
23302;SDS011;11820;48.738;9.092;2023-03-19T08:15:32;1.47;;;1.37;;
23302;SDS011;11820;48.738;9.092;2023-03-19T08:17:59;3.57;;;1.30;;
23302;SDS011;11820;48.738;9.092;2023-03-19T08:20:25;2.47;;;1.57;;
23302;SDS011;11820;48.738;9.092;2023-03-19T08:22:50;2.43;;;1.50;;
23302;SDS011;11820;48.738;9.092;2023-03-19T08:25:16;2.53;;;1.70;;
23302;SDS011;11820;48.738;9.092;2023-03-19T08:27:41;2.23;;;1.13;;
23302;SDS011;11820;48.738;9.092;2023-03-19T08:30:08;3.30;;;1.70;;
23302;SDS011;11820;48.738;9.092;2023-03-19T08:32:34;5.00;;;1.40;;
23302;SDS011;11820;48.738;9.092;2023-03-19T08:35:00;3.10;;;1.53;;
23302;SDS011;11820;48.738;9.092;2023-03-19T08:37:26;2.30;;;1.30;;
23302;SDS011;11820;48.738;9.092;2023-03-19T08:39:52;3.80;;;1.60;;
23302;SDS011;11820;48.738;9.092;2023-03-19T08:42:18;1.40;;;1.30;;
23302;SDS011;11820;48.738;9.092;2023-03-19T08:44:44;2.37;;;1.37;;
23302;SDS011;11820;48.738;9.092;2023-03-19T08:47:10;2.60;;;1.60;;
23302;SDS011;11820;48.738;9.092;2023-03-19T08:49:36;2.80;;;1.50;;
23302;SDS011;11820;48.738;9.092;2023-03-19T08:52:01;2.67;;;1.30;;
23302;SDS011;11820;48.738;9.092;2023-03-19T08:54:28;3.37;;;1.50;;
23302;SDS011;11820;48.738;9.092;2023-03-19T08:56:53;2.27;;;1.60;;
23302;SDS011;11820;48.738;9.092;2023-03-19T08:59:18;3.43;;;1.60;;
23302;SDS011;11820;48.738;9.092;2023-03-19T09:01:44;1.93;;;1.40;;
23302;SDS011;11820;48.738;9.092;2023-03-19T09:04:09;2.27;;;1.57;;
23302;SDS011;11820;48.738;9.092;2023-03-19T09:06:35;3.43;;;1.60;;
23302;SDS011;11820;48.738;9.092;2023-03-19T09:09:00;2.57;;;1.53;;
23302;SDS011;11820;48.738;9.092;2023-03-19T09:11:25;2.00;;;1.60;;
23302;SDS011;11820;48.738;9.092;2023-03-19T09:13:51;2.07;;;1.70;;
23302;SDS011;11820;48.738;9.092;2023-03-19T09:16:16;1.30;;;1.20;;
23302;SDS011;11820;48.738;9.092;2023-03-19T09:18:42;2.83;;;1.47;;
23302;SDS011;11820;48.738;9.092;2023-03-19T09:21:07;3.47;;;1.53;;
23302;SDS011;11820;48.738;9.092;2023-03-19T09:23:33;2.70;;;1.57;;
23302;SDS011;11820;48.738;9.092;2023-03-19T09:25:59;2.97;;;1.53;;
23302;SDS011;11820;48.738;9.092;2023-03-19T09:28:24;2.13;;;1.70;;
23302;SDS011;11820;48.738;9.092;2023-03-19T09:30:50;3.30;;;1.77;;
23302;SDS011;11820;48.738;9.092;2023-03-19T09:33:16;2.47;;;1.73;;
23302;SDS011;11820;48.738;9.092;2023-03-19T09:35:47;1.80;;;1.60;;
23302;SDS011;11820;48.738;9.092;2023-03-19T09:38:14;3.13;;;1.60;;
23302;SDS011;11820;48.738;9.092;2023-03-19T09:40:52;2.83;;;1.73;;
23302;SDS011;11820;48.738;9.092;2023-03-19T09:46:11;2.57;;;1.20;;
23302;SDS011;11820;48.738;9.092;2023-03-19T09:48:48;5.00;;;1.73;;
23302;SDS011;11820;48.738;9.092;2023-03-19T09:51:22;3.27;;;1.70;;
23302;SDS011;11820;48.738;9.092;2023-03-19T09:53:57;3.50;;;1.73;;
23302;SDS011;11820;48.738;9.092;2023-03-19T09:56:26;5.47;;;1.80;;
23302;SDS011;11820;48.738;9.092;2023-03-19T09:58:52;3.37;;;1.40;;
23302;SDS011;11820;48.738;9.092;2023-03-19T10:01:24;3.93;;;1.80;;
23302;SDS011;11820;48.738;9.092;2023-03-19T10:07:01;2.23;;;1.47;;
23302;SDS011;11820;48.738;9.092;2023-03-19T10:09:38;2.07;;;1.60;;
23302;SDS011;11820;48.738;9.092;2023-03-19T10:15:16;4.25;;;1.83;;
23302;SDS011;11820;48.738;9.092;2023-03-19T10:17:57;2.60;;;1.70;;
23302;SDS011;11820;48.738;9.092;2023-03-19T10:20:29;5.23;;;1.60;;
23302;SDS011;11820;48.738;9.092;2023-03-19T10:25:39;2.10;;;1.40;;
23302;SDS011;11820;48.738;9.092;2023-03-19T10:28:14;4.67;;;1.90;;
23302;SDS011;11820;48.738;9.092;2023-03-19T10:30:41;2.43;;;1.53;;
23302;SDS011;11820;48.738;9.092;2023-03-19T10:35:55;4.00;;;1.33;;
23302;SDS011;11820;48.738;9.092;2023-03-19T10:38:26;1.73;;;1.37;;
23302;SDS011;11820;48.738;9.092;2023-03-19T10:43:39;1.97;;;1.47;;
23302;SDS011;11820;48.738;9.092;2023-03-19T10:46:05;2.07;;;1.73;;
23302;SDS011;11820;48.738;9.092;2023-03-19T10:48:41;4.63;;;1.60;;
23302;SDS011;11820;48.738;9.092;2023-03-19T10:51:09;5.40;;;1.90;;
23302;SDS011;11820;48.738;9.092;2023-03-19T10:53:39;3.53;;;1.97;;
23302;SDS011;11820;48.738;9.092;2023-03-19T11:01:21;2.97;;;1.83;;
23302;SDS011;11820;48.738;9.092;2023-03-19T11:03:56;4.57;;;1.93;;
23302;SDS011;11820;48.738;9.092;2023-03-19T11:06:40;3.00;;;1.73;;
23302;SDS011;11820;48.738;9.092;2023-03-19T11:17:15;3.77;;;1.40;;
23302;SDS011;11820;48.738;9.092;2023-03-19T11:19:48;2.77;;;2.00;;
23302;SDS011;11820;48.738;9.092;2023-03-19T11:22:24;3.53;;;1.40;;
23302;SDS011;11820;48.738;9.092;2023-03-19T11:24:56;2.53;;;1.73;;
23302;SDS011;11820;48.738;9.092;2023-03-19T11:27:25;2.73;;;1.80;;
23302;SDS011;11820;48.738;9.092;2023-03-19T11:29:56;4.50;;;1.63;;
23302;SDS011;11820;48.738;9.092;2023-03-19T11:35:18;4.40;;;2.23;;
23302;SDS011;11820;48.738;9.092;2023-03-19T11:37:55;2.37;;;1.40;;
23302;SDS011;11820;48.738;9.092;2023-03-19T11:48:24;3.23;;;1.70;;
23302;SDS011;11820;48.738;9.092;2023-03-19T11:51:18;2.10;;;1.53;;
23302;SDS011;11820;48.738;9.092;2023-03-19T11:53:55;2.90;;;1.67;;
23302;SDS011;11820;48.738;9.092;2023-03-19T11:56:34;3.57;;;2.00;;
23302;SDS011;11820;48.738;9.092;2023-03-19T12:10:09;1.63;;;1.50;;
23302;SDS011;11820;48.738;9.092;2023-03-19T12:12:46;3.73;;;2.07;;
23302;SDS011;11820;48.738;9.092;2023-03-19T12:15:15;3.70;;;1.57;;
23302;SDS011;11820;48.738;9.092;2023-03-19T12:17:57;3.93;;;1.70;;
23302;SDS011;11820;48.738;9.092;2023-03-19T12:20:33;2.37;;;1.80;;
23302;SDS011;11820;48.738;9.092;2023-03-19T12:23:14;3.97;;;1.80;;
23302;SDS011;11820;48.738;9.092;2023-03-19T12:25:58;3.80;;;2.47;;
23302;SDS011;11820;48.738;9.092;2023-03-19T12:28:29;4.70;;;1.47;;
23302;SDS011;11820;48.738;9.092;2023-03-19T12:33:51;3.27;;;2.00;;
23302;SDS011;11820;48.738;9.092;2023-03-19T12:36:24;6.63;;;1.80;;
23302;SDS011;11820;48.738;9.092;2023-03-19T12:38:58;5.20;;;2.17;;
23302;SDS011;11820;48.738;9.092;2023-03-19T12:41:35;2.93;;;1.67;;
23302;SDS011;11820;48.738;9.092;2023-03-19T12:44:28;3.70;;;2.00;;
23302;SDS011;11820;48.738;9.092;2023-03-19T12:47:02;5.40;;;1.93;;
23302;SDS011;11820;48.738;9.092;2023-03-19T12:49:49;2.40;;;1.93;;
23302;SDS011;11820;48.738;9.092;2023-03-19T12:52:41;2.57;;;1.70;;
23302;SDS011;11820;48.738;9.092;2023-03-19T13:00:49;2.70;;;1.77;;
23302;SDS011;11820;48.738;9.092;2023-03-19T13:03:36;2.40;;;1.70;;
23302;SDS011;11820;48.738;9.092;2023-03-19T13:06:25;4.13;;;1.70;;
23302;SDS011;11820;48.738;9.092;2023-03-19T13:17:30;2.37;;;1.40;;
23302;SDS011;11820;48.738;9.092;2023-03-19T13:22:53;3.67;;;1.33;;
23302;SDS011;11820;48.738;9.092;2023-03-19T13:25:24;2.13;;;1.70;;
23302;SDS011;11820;48.738;9.092;2023-03-19T13:27:55;2.60;;;1.30;;
23302;SDS011;11820;48.738;9.092;2023-03-19T13:30:21;2.07;;;1.27;;
23302;SDS011;11820;48.738;9.092;2023-03-19T13:32:48;2.97;;;1.60;;
23302;SDS011;11820;48.738;9.092;2023-03-19T13:38:17;3.60;;;2.10;;
23302;SDS011;11820;48.738;9.092;2023-03-19T13:41:04;4.67;;;1.77;;
23302;SDS011;11820;48.738;9.092;2023-03-19T13:56:17;5.53;;;1.70;;
23302;SDS011;11820;48.738;9.092;2023-03-19T13:58:47;4.20;;;1.93;;
23302;SDS011;11820;48.738;9.092;2023-03-19T14:03:55;1.60;;;1.40;;
23302;SDS011;11820;48.738;9.092;2023-03-19T14:06:42;3.73;;;1.67;;
23302;SDS011;11820;48.738;9.092;2023-03-19T14:09:31;3.30;;;1.90;;
23302;SDS011;11820;48.738;9.092;2023-03-19T14:12:09;3.20;;;1.80;;
23302;SDS011;11820;48.738;9.092;2023-03-19T14:17:19;2.97;;;1.70;;
23302;SDS011;11820;48.738;9.092;2023-03-19T14:19:46;2.93;;;1.50;;
23302;SDS011;11820;48.738;9.092;2023-03-19T14:22:21;4.83;;;1.90;;
23302;SDS011;11820;48.738;9.092;2023-03-19T14:25:16;2.20;;;1.37;;
23302;SDS011;11820;48.738;9.092;2023-03-19T14:27:47;3.17;;;1.67;;
23302;SDS011;11820;48.738;9.092;2023-03-19T14:30:59;3.70;;;1.63;;
23302;SDS011;11820;48.738;9.092;2023-03-19T14:33:05;3.13;;;1.57;;
23302;SDS011;11820;48.738;9.092;2023-03-19T14:35:40;4.27;;;1.50;;
23302;SDS011;11820;48.738;9.092;2023-03-19T14:38:23;8.33;;;2.10;;
23302;SDS011;11820;48.738;9.092;2023-03-19T14:40:56;3.17;;;2.00;;
23302;SDS011;11820;48.738;9.092;2023-03-19T14:56:56;2.83;;;2.03;;
23302;SDS011;11820;48.738;9.092;2023-03-19T14:59:22;4.37;;;2.03;;
23302;SDS011;11820;48.738;9.092;2023-03-19T15:01:51;3.13;;;1.80;;
23302;SDS011;11820;48.738;9.092;2023-03-19T15:04:19;5.73;;;2.47;;
23302;SDS011;11820;48.738;9.092;2023-03-19T15:06:50;3.60;;;1.60;;
23302;SDS011;11820;48.738;9.092;2023-03-19T15:09:20;3.43;;;1.70;;
23302;SDS011;11820;48.738;9.092;2023-03-19T15:17:14;2.80;;;1.50;;
23302;SDS011;11820;48.738;9.092;2023-03-19T15:19:42;2.57;;;1.70;;
23302;SDS011;11820;48.738;9.092;2023-03-19T15:22:20;2.50;;;1.53;;
23302;SDS011;11820;48.738;9.092;2023-03-19T15:24:50;2.53;;;1.80;;
23302;SDS011;11820;48.738;9.092;2023-03-19T15:27:25;3.00;;;2.23;;
23302;SDS011;11820;48.738;9.092;2023-03-19T15:29:51;2.10;;;1.90;;
23302;SDS011;11820;48.738;9.092;2023-03-19T15:32:39;5.77;;;2.53;;
23302;SDS011;11820;48.738;9.092;2023-03-19T15:35:06;5.37;;;3.37;;
23302;SDS011;11820;48.738;9.092;2023-03-19T15:37:34;2.37;;;1.73;;
23302;SDS011;11820;48.738;9.092;2023-03-19T15:40:04;2.83;;;1.93;;
23302;SDS011;11820;48.738;9.092;2023-03-19T15:42:34;4.47;;;2.40;;
23302;SDS011;11820;48.738;9.092;2023-03-19T15:45:06;4.77;;;2.20;;
23302;SDS011;11820;48.738;9.092;2023-03-19T15:47:34;3.50;;;2.10;;
23302;SDS011;11820;48.738;9.092;2023-03-19T15:53:03;4.23;;;2.10;;
23302;SDS011;11820;48.738;9.092;2023-03-19T15:55:33;2.53;;;1.90;;
23302;SDS011;11820;48.738;9.092;2023-03-19T15:58:02;4.37;;;1.70;;
23302;SDS011;11820;48.738;9.092;2023-03-19T16:00:34;3.13;;;1.93;;
23302;SDS011;11820;48.738;9.092;2023-03-19T16:03:00;4.23;;;2.00;;
23302;SDS011;11820;48.738;9.092;2023-03-19T16:05:29;5.83;;;2.37;;
23302;SDS011;11820;48.738;9.092;2023-03-19T16:13:16;5.90;;;2.50;;
23302;SDS011;11820;48.738;9.092;2023-03-19T16:15:54;5.87;;;2.33;;
23302;SDS011;11820;48.738;9.092;2023-03-19T16:18:24;3.63;;;2.20;;
23302;SDS011;11820;48.738;9.092;2023-03-19T16:21:08;4.97;;;2.57;;
23302;SDS011;11820;48.738;9.092;2023-03-19T16:23:42;8.27;;;3.07;;
23302;SDS011;11820;48.738;9.092;2023-03-19T16:26:19;8.73;;;2.93;;
23302;SDS011;11820;48.738;9.092;2023-03-19T16:28:51;3.40;;;2.40;;
23302;SDS011;11820;48.738;9.092;2023-03-19T16:31:23;3.63;;;2.13;;
23302;SDS011;11820;48.738;9.092;2023-03-19T16:33:52;6.73;;;2.83;;
23302;SDS011;11820;48.738;9.092;2023-03-19T16:36:18;6.50;;;3.20;;
23302;SDS011;11820;48.738;9.092;2023-03-19T16:38:55;2.60;;;2.23;;
23302;SDS011;11820;48.738;9.092;2023-03-19T16:41:23;3.73;;;2.03;;
23302;SDS011;11820;48.738;9.092;2023-03-19T16:43:56;2.83;;;1.90;;
23302;SDS011;11820;48.738;9.092;2023-03-19T16:46:35;3.83;;;2.10;;
23302;SDS011;11820;48.738;9.092;2023-03-19T16:49:00;4.97;;;1.97;;
23302;SDS011;11820;48.738;9.092;2023-03-19T16:51:26;5.70;;;2.63;;
23302;SDS011;11820;48.738;9.092;2023-03-19T16:53:54;4.37;;;2.03;;
23302;SDS011;11820;48.738;9.092;2023-03-19T16:56:19;7.57;;;2.47;;
23302;SDS011;11820;48.738;9.092;2023-03-19T16:58:56;2.53;;;1.80;;
23302;SDS011;11820;48.738;9.092;2023-03-19T17:01:23;6.10;;;2.20;;
23302;SDS011;11820;48.738;9.092;2023-03-19T17:03:49;2.87;;;1.70;;